createdAt,value
2022-09-17T00:00:33.377Z,2.00
2022-09-17T00:02:59.747Z,1.83
2022-09-17T00:05:26.076Z,1.83
2022-09-17T00:07:53.103Z,2.63
2022-09-17T00:10:20.844Z,2.65
2022-09-17T00:12:47.683Z,2.35
2022-09-17T00:15:14.071Z,2.40
2022-09-17T00:17:41.012Z,2.20
2022-09-17T00:20:11.708Z,2.10
2022-09-17T00:22:39.438Z,2.30
2022-09-17T00:25:08.475Z,2.17
2022-09-17T00:27:34.819Z,1.73
2022-09-17T00:30:01.289Z,2.45
2022-09-17T00:32:27.740Z,1.80
2022-09-17T00:34:54.084Z,2.28
2022-09-17T00:37:20.522Z,1.75
2022-09-17T00:39:46.838Z,2.00
2022-09-17T00:42:14.691Z,2.05
2022-09-17T00:44:54.107Z,1.92
2022-09-17T00:47:25.112Z,1.90
2022-09-17T00:49:56.599Z,1.77
2022-09-17T00:52:28.539Z,2.45
2022-09-17T00:55:03.343Z,1.73
2022-09-17T00:57:31.019Z,1.85
2022-09-17T00:59:57.973Z,2.13
2022-09-17T01:02:25.400Z,2.22
2022-09-17T01:04:51.723Z,2.03
2022-09-17T01:07:24.094Z,2.10
2022-09-17T01:09:53.330Z,2.90
2022-09-17T01:12:31.597Z,2.70
2022-09-17T01:15:33.086Z,2.83
2022-09-17T01:18:11.706Z,2.50
2022-09-17T01:21:14.705Z,3.30
2022-09-17T01:24:13.637Z,3.60
2022-09-17T01:27:10.877Z,3.00
2022-09-17T01:30:13.001Z,3.35
2022-09-17T01:32:46.037Z,3.17
2022-09-17T01:35:27.534Z,3.63
2022-09-17T01:38:18.910Z,3.30
2022-09-17T01:41:08.774Z,3.47
2022-09-17T01:43:54.776Z,3.60
2022-09-17T01:46:43.025Z,3.35
2022-09-17T01:49:13.046Z,3.75
2022-09-17T01:51:42.186Z,3.78
2022-09-17T01:54:32.276Z,3.10
2022-09-17T01:57:23.165Z,3.65
2022-09-17T01:59:55.622Z,3.67
2022-09-17T02:02:38.588Z,3.33
2022-09-17T02:05:19.386Z,3.33
2022-09-17T02:07:52.715Z,3.60
2022-09-17T02:10:23.858Z,2.63
2022-09-17T02:12:56.005Z,3.25
2022-09-17T02:15:26.806Z,3.15
2022-09-17T02:18:02.931Z,3.55
2022-09-17T02:20:43.378Z,2.90
2022-09-17T02:23:16.797Z,3.40
2022-09-17T02:25:57.283Z,3.58
2022-09-17T02:28:31.450Z,3.33
2022-09-17T02:30:57.802Z,3.10
2022-09-17T02:33:25.813Z,3.30
2022-09-17T02:35:52.245Z,2.78
2022-09-17T02:38:25.305Z,3.28
2022-09-17T02:41:01.469Z,3.03
2022-09-17T02:43:41.675Z,3.42
2022-09-17T02:46:19.147Z,2.72
2022-09-17T02:49:13.207Z,2.53
2022-09-17T02:51:53.489Z,2.78
2022-09-17T02:54:40.830Z,2.95
2022-09-17T02:57:23.513Z,2.20
2022-09-17T03:00:09.367Z,2.58
2022-09-17T03:02:45.480Z,3.17
2022-09-17T03:05:13.301Z,2.83
2022-09-17T03:07:40.255Z,2.30
2022-09-17T03:10:07.203Z,2.83
2022-09-17T03:12:36.052Z,2.53
2022-09-17T03:15:03.281Z,3.17
2022-09-17T03:17:30.129Z,2.92
2022-09-17T03:19:56.566Z,4.28
2022-09-17T03:22:22.855Z,2.80
2022-09-17T03:24:49.161Z,3.22
2022-09-17T03:27:15.886Z,2.85
2022-09-17T03:29:42.167Z,2.22
2022-09-17T03:32:08.536Z,2.20
2022-09-17T03:34:34.831Z,3.03
2022-09-17T03:37:01.329Z,3.17
2022-09-17T03:39:29.147Z,2.40
2022-09-17T03:41:55.424Z,2.40
2022-09-17T03:44:23.637Z,2.83
2022-09-17T03:46:50.712Z,2.45
2022-09-17T03:49:17.059Z,2.80
2022-09-17T03:51:43.400Z,3.03
2022-09-17T03:54:09.707Z,2.78
2022-09-17T03:56:36.057Z,2.30
2022-09-17T03:59:02.451Z,2.47
2022-09-17T04:01:29.257Z,2.88
2022-09-17T04:03:56.037Z,2.85
2022-09-17T04:06:22.446Z,2.72
2022-09-17T04:08:48.716Z,2.20
2022-09-17T04:11:15.092Z,2.63
2022-09-17T04:13:41.438Z,2.58
2022-09-17T04:16:07.892Z,2.30
2022-09-17T04:18:34.388Z,2.47
2022-09-17T04:21:00.903Z,2.90
2022-09-17T04:23:27.193Z,2.78
2022-09-17T04:25:53.484Z,2.65
2022-09-17T04:28:19.767Z,2.53
2022-09-17T04:30:48.020Z,2.22
2022-09-17T04:33:14.325Z,2.63
2022-09-17T04:35:40.615Z,3.10
2022-09-17T04:38:06.966Z,2.70
2022-09-17T04:40:33.351Z,2.35
2022-09-17T04:43:02.851Z,1.77
2022-09-17T04:45:30.574Z,2.83
2022-09-17T04:47:57.403Z,2.67
2022-09-17T04:50:23.721Z,1.98
2022-09-17T04:52:50.131Z,2.97
2022-09-17T04:55:16.879Z,2.50
2022-09-17T04:57:51.636Z,2.33
2022-09-17T05:00:19.176Z,3.13
2022-09-17T05:02:47.694Z,2.63
2022-09-17T05:05:14.917Z,2.50
2022-09-17T05:07:42.213Z,2.22
2022-09-17T05:10:10.490Z,2.35
2022-09-17T05:12:36.880Z,2.30
2022-09-17T05:15:03.617Z,2.60
2022-09-17T05:17:29.924Z,2.13
2022-09-17T05:19:56.230Z,2.67
2022-09-17T05:22:22.534Z,2.08
2022-09-17T05:24:48.900Z,2.58
2022-09-17T05:27:15.395Z,3.08
2022-09-17T05:29:41.717Z,2.03
2022-09-17T05:32:08.001Z,2.70
2022-09-17T05:34:34.488Z,2.60
2022-09-17T05:37:00.818Z,2.80
2022-09-17T05:39:27.109Z,2.25
2022-09-17T05:41:54.458Z,2.50
2022-09-17T05:44:21.320Z,1.88
2022-09-17T05:46:48.123Z,2.42
2022-09-17T05:49:15.058Z,2.20
2022-09-17T05:51:42.484Z,2.25
2022-09-17T05:54:09.400Z,1.60
2022-09-17T05:56:35.694Z,2.20
2022-09-17T05:59:01.987Z,1.58
2022-09-17T06:01:28.367Z,2.20
2022-09-17T06:03:54.779Z,2.03
2022-09-17T06:06:21.065Z,2.83
2022-09-17T06:08:47.357Z,2.00
2022-09-17T06:11:13.850Z,2.20
2022-09-17T06:13:40.198Z,1.95
2022-09-17T06:16:06.518Z,2.10
2022-09-17T06:18:32.909Z,2.20
2022-09-17T06:21:01.930Z,1.90
2022-09-17T06:23:33.065Z,2.22
2022-09-17T06:26:00.337Z,2.20
2022-09-17T06:28:27.587Z,1.90
2022-09-17T06:30:54.294Z,2.50
2022-09-17T06:33:21.792Z,1.73
2022-09-17T06:35:48.122Z,2.22
2022-09-17T06:38:14.758Z,1.63
2022-09-17T06:40:41.258Z,1.90
2022-09-17T06:43:07.582Z,2.03
2022-09-17T06:45:33.868Z,2.30
2022-09-17T06:48:04.153Z,2.60
2022-09-17T06:50:31.112Z,2.00
2022-09-17T06:52:57.423Z,3.13
2022-09-17T06:55:23.981Z,3.05
2022-09-17T06:57:50.336Z,2.40
2022-09-17T07:00:16.728Z,2.13
2022-09-17T07:02:43.026Z,2.42
2022-09-17T07:05:09.529Z,2.60
2022-09-17T07:07:35.820Z,2.05
2022-09-17T07:10:02.864Z,1.92
2022-09-17T07:12:29.156Z,2.10
2022-09-17T07:14:55.454Z,2.03
2022-09-17T07:17:21.779Z,2.10
2022-09-17T07:19:48.061Z,2.80
2022-09-17T07:22:14.365Z,1.90
2022-09-17T07:24:40.663Z,1.60
2022-09-17T07:27:06.961Z,1.90
2022-09-17T07:29:33.267Z,2.17
2022-09-17T07:31:59.668Z,1.70
2022-09-17T07:34:28.702Z,1.80
2022-09-17T07:36:54.990Z,1.90
2022-09-17T07:39:21.310Z,2.15
2022-09-17T07:41:47.605Z,2.35
2022-09-17T07:44:13.897Z,2.45
2022-09-17T07:46:40.380Z,1.95
2022-09-17T07:49:06.727Z,1.63
2022-09-17T07:51:33.090Z,1.88
2022-09-17T07:53:59.871Z,1.88
2022-09-17T07:56:27.234Z,1.77
2022-09-17T07:58:54.079Z,1.80
2022-09-17T08:01:23.365Z,1.60
2022-09-17T08:03:52.461Z,1.20
2022-09-17T08:06:28.493Z,2.22
2022-09-17T08:08:57.008Z,1.75
2022-09-17T08:14:14.569Z,1.70
2022-09-17T08:19:09.023Z,1.63
2022-09-17T08:21:35.750Z,1.92
2022-09-17T08:24:02.165Z,1.80
2022-09-17T08:26:28.731Z,2.50
2022-09-17T08:28:56.420Z,1.77
2022-09-17T08:31:24.885Z,1.80
2022-09-17T08:33:51.239Z,1.13
2022-09-17T08:36:19.141Z,1.58
2022-09-17T08:38:46.102Z,2.33
2022-09-17T08:41:40.347Z,1.63
2022-09-17T08:44:13.711Z,2.20
2022-09-17T08:46:50.596Z,1.35
2022-09-17T08:49:33.900Z,1.73
2022-09-17T08:52:12.040Z,1.33
2022-09-17T08:54:42.590Z,1.92
2022-09-17T08:57:33.596Z,1.50
2022-09-17T09:00:12.082Z,1.70
2022-09-17T09:05:21.078Z,1.48
2022-09-17T09:07:52.710Z,1.52
2022-09-17T09:10:24.376Z,1.88
2022-09-17T09:12:52.705Z,1.30
2022-09-17T09:15:29.358Z,1.42
2022-09-17T09:18:03.288Z,1.27
2022-09-17T09:20:47.944Z,1.20
2022-09-17T09:23:34.440Z,1.45
2022-09-17T09:26:16.694Z,1.00
2022-09-17T09:29:04.258Z,1.25
2022-09-17T09:31:56.509Z,1.33
2022-09-17T09:34:23.810Z,1.00
2022-09-17T09:36:51.718Z,1.58
2022-09-17T09:39:23.720Z,1.02
2022-09-17T09:41:59.946Z,1.40
2022-09-17T09:44:26.856Z,1.60
2022-09-17T09:47:12.326Z,0.90
2022-09-17T09:50:00.143Z,1.13
2022-09-17T09:52:48.649Z,1.10
2022-09-17T09:58:17.449Z,1.73
2022-09-17T10:00:43.868Z,1.85
2022-09-17T10:03:21.339Z,1.50
2022-09-17T10:05:58.729Z,0.95
2022-09-17T10:08:25.841Z,1.50
2022-09-17T10:11:02.752Z,1.10
2022-09-17T10:13:35.633Z,1.30
2022-09-17T10:16:20.393Z,1.00
2022-09-17T10:18:48.460Z,1.27
2022-09-17T10:21:22.409Z,1.10
2022-09-17T10:23:50.396Z,1.17
2022-09-17T10:26:35.339Z,0.90
2022-09-17T10:29:13.321Z,1.00
2022-09-17T10:31:48.453Z,1.00
2022-09-17T10:34:21.578Z,1.48
2022-09-17T10:36:48.728Z,0.77
2022-09-17T10:39:27.173Z,1.05
2022-09-17T10:44:51.126Z,1.30
2022-09-17T10:47:34.482Z,1.67
2022-09-17T10:50:23.898Z,0.70
2022-09-17T10:52:53.505Z,1.00
2022-09-17T10:56:01.309Z,0.90
2022-09-17T10:59:03.104Z,0.80
2022-09-17T11:01:52.182Z,0.85
2022-09-17T11:04:18.530Z,0.55
2022-09-17T11:06:59.502Z,0.43
2022-09-17T11:09:26.166Z,2.10
2022-09-17T11:12:04.836Z,1.48
2022-09-17T11:14:46.972Z,2.63
2022-09-17T11:17:43.636Z,0.95
2022-09-17T11:20:28.643Z,0.80
2022-09-17T11:23:05.143Z,0.70
2022-09-17T11:26:13.708Z,0.70
2022-09-17T11:28:56.026Z,0.80
2022-09-17T11:31:43.622Z,0.90
2022-09-17T11:34:28.333Z,0.80
2022-09-17T11:37:06.922Z,1.00
2022-09-17T11:39:57.335Z,2.22
2022-09-17T11:42:51.649Z,1.35
2022-09-17T11:45:25.642Z,0.77
2022-09-17T11:48:13.769Z,0.85
2022-09-17T11:50:43.422Z,0.60
2022-09-17T11:53:26.806Z,0.80
2022-09-17T11:55:57.674Z,0.95
2022-09-17T11:58:42.344Z,0.73
2022-09-17T12:01:17.010Z,0.82
2022-09-17T12:03:53.357Z,0.60
2022-09-17T12:06:35.309Z,0.90
2022-09-17T12:09:14.020Z,0.70
2022-09-17T12:11:46.344Z,0.77
2022-09-17T12:14:21.638Z,2.42
2022-09-17T12:16:52.926Z,1.00
2022-09-17T12:19:46.673Z,1.20
2022-09-17T12:22:23.440Z,0.75
2022-09-17T12:24:51.198Z,0.70
2022-09-17T12:27:23.470Z,0.40
2022-09-17T12:30:11.596Z,0.50
2022-09-17T12:33:00.971Z,2.17
2022-09-17T12:38:40.950Z,0.85
2022-09-17T12:41:19.057Z,0.70
2022-09-17T12:44:04.018Z,1.10
2022-09-17T12:46:39.628Z,1.02
2022-09-17T12:49:33.869Z,0.88
2022-09-17T12:52:23.064Z,0.80
2022-09-17T12:55:07.763Z,0.88
2022-09-17T12:58:17.629Z,0.80
2022-09-17T13:00:59.496Z,0.80
2022-09-17T13:03:32.950Z,1.10
2022-09-17T13:06:14.314Z,0.63
2022-09-17T13:09:09.158Z,0.85
2022-09-17T13:12:00.718Z,0.90
2022-09-17T13:15:02.841Z,1.17
2022-09-17T13:18:12.758Z,0.82
2022-09-17T13:20:54.154Z,0.50
2022-09-17T13:23:40.483Z,0.80
2022-09-17T13:26:08.758Z,1.45
2022-09-17T13:28:47.851Z,0.90
2022-09-17T13:31:40.642Z,1.05
2022-09-17T13:34:19.112Z,0.70
2022-09-17T13:36:53.717Z,0.98
2022-09-17T13:39:47.377Z,0.70
2022-09-17T13:42:21.374Z,0.98
2022-09-17T13:45:18.492Z,0.70
2022-09-17T13:47:54.073Z,0.98
2022-09-17T13:50:35.440Z,0.70
2022-09-17T13:53:16.870Z,0.80
2022-09-17T13:55:48.111Z,0.90
2022-09-17T13:58:23.503Z,1.48
2022-09-17T14:01:13.395Z,1.00
2022-09-17T14:03:45.527Z,1.20
2022-09-17T14:06:11.879Z,1.33
2022-09-17T14:08:44.193Z,0.80
2022-09-17T14:11:37.427Z,0.77
2022-09-17T14:14:07.814Z,1.10
2022-09-17T14:16:43.015Z,1.30
2022-09-17T14:19:15.391Z,1.13
2022-09-17T14:22:00.387Z,1.60
2022-09-17T14:24:37.530Z,1.30
2022-09-17T14:27:42.551Z,1.15
2022-09-17T14:30:24.074Z,2.40
2022-09-17T14:32:56.101Z,0.90
2022-09-17T14:35:42.141Z,1.52
2022-09-17T14:38:33.574Z,1.20
2022-09-17T14:40:59.760Z,1.30
2022-09-17T14:43:43.754Z,1.33
2022-09-17T14:46:17.825Z,0.90
2022-09-17T14:48:44.197Z,1.20
2022-09-17T14:51:19.713Z,0.75
2022-09-17T14:54:06.915Z,0.80
2022-09-17T14:56:36.381Z,0.70
2022-09-17T14:59:02.688Z,0.70
2022-09-17T15:01:30.863Z,0.35
2022-09-17T15:04:12.488Z,0.52
2022-09-17T15:06:41.821Z,0.75
2022-09-17T15:09:25.912Z,0.63
2022-09-17T15:11:55.197Z,1.35
2022-09-17T15:14:26.892Z,1.10
2022-09-17T15:16:55.188Z,1.27
2022-09-17T15:19:35.799Z,1.30
2022-09-17T15:22:08.620Z,1.50
2022-09-17T15:24:53.963Z,0.85
2022-09-17T15:27:30.644Z,1.00
2022-09-17T15:30:09.556Z,1.20
2022-09-17T15:32:36.238Z,1.08
2022-09-17T15:35:11.933Z,1.35
2022-09-17T15:37:46.659Z,1.05
2022-09-17T15:40:28.281Z,1.08
2022-09-17T15:43:14.311Z,1.05
2022-09-17T15:45:42.441Z,1.20
2022-09-17T15:48:32.778Z,1.23
2022-09-17T15:51:01.102Z,1.17
2022-09-17T15:53:30.098Z,0.93
2022-09-17T15:56:09.450Z,0.98
2022-09-17T15:58:41.510Z,1.40
2022-09-17T16:01:13.815Z,1.20
2022-09-17T16:03:40.247Z,1.08
2022-09-17T16:06:18.613Z,0.70
2022-09-17T16:08:58.300Z,1.00
2022-09-17T16:11:34.853Z,1.00
2022-09-17T16:14:01.529Z,1.27
2022-09-17T16:16:33.881Z,1.00
2022-09-17T16:19:00.710Z,1.80
2022-09-17T16:21:27.649Z,1.00
2022-09-17T16:23:54.017Z,1.25
2022-09-17T16:26:22.568Z,1.30
2022-09-17T16:31:16.313Z,8.13
2022-09-17T16:33:42.652Z,6.00
2022-09-17T16:36:09.280Z,2.10
2022-09-17T16:38:36.211Z,18.73
2022-09-17T16:41:05.517Z,15.82
2022-09-17T16:43:33.539Z,8.48
2022-09-17T16:46:05.211Z,6.22
2022-09-17T16:48:33.004Z,9.13
2022-09-17T16:51:01.319Z,4.43
2022-09-17T16:53:27.684Z,3.45
2022-09-17T16:55:53.989Z,6.60
2022-09-17T16:58:20.295Z,6.68
2022-09-17T17:00:46.648Z,13.57
2022-09-17T17:03:14.315Z,9.32
2022-09-17T17:05:41.158Z,7.63
2022-09-17T17:08:09.007Z,13.98
2022-09-17T17:10:37.806Z,27.40
2022-09-17T17:13:04.846Z,7.88
2022-09-17T17:15:31.237Z,16.85
2022-09-17T17:17:57.854Z,14.80
2022-09-17T17:20:24.137Z,6.07
2022-09-17T17:22:52.804Z,4.30
2022-09-17T17:27:45.379Z,8.90
2022-09-17T17:30:16.667Z,7.85
2022-09-17T17:32:43.804Z,14.07
2022-09-17T17:35:10.634Z,12.77
2022-09-17T17:37:36.956Z,7.82
2022-09-17T17:40:06.812Z,25.65
2022-09-17T17:42:37.932Z,26.25
2022-09-17T17:45:06.032Z,8.18
2022-09-17T17:47:32.352Z,15.15
2022-09-17T17:49:58.740Z,7.93
2022-09-17T17:52:25.246Z,3.00
2022-09-17T17:54:51.539Z,2.63
2022-09-17T17:57:17.824Z,2.08
2022-09-17T17:59:44.124Z,2.45
2022-09-17T18:02:11.481Z,6.55
2022-09-17T18:04:37.881Z,2.53
2022-09-17T18:07:04.216Z,2.17
2022-09-17T18:09:30.519Z,2.92
2022-09-17T18:11:56.832Z,4.78
2022-09-17T18:14:23.123Z,6.63
2022-09-17T18:16:49.480Z,5.22
2022-09-17T18:19:15.764Z,28.45
2022-09-17T18:21:42.088Z,16.73
2022-09-17T18:24:08.394Z,5.95
2022-09-17T18:26:35.717Z,3.22
2022-09-17T18:29:07.049Z,2.50
2022-09-17T18:31:35.808Z,2.00
2022-09-17T18:34:04.907Z,2.17
2022-09-17T18:36:33.900Z,2.08
2022-09-17T18:39:16.980Z,2.25
2022-09-17T18:41:48.932Z,1.52
2022-09-17T18:44:15.688Z,1.80
2022-09-17T18:46:42.574Z,1.50
2022-09-17T18:49:09.059Z,1.73
2022-09-17T18:51:35.378Z,1.83
2022-09-17T18:54:03.029Z,3.15
2022-09-17T18:56:32.590Z,2.17
2022-09-17T18:59:02.391Z,2.28
2022-09-17T19:01:32.321Z,2.63
2022-09-17T19:03:59.416Z,2.30
2022-09-17T19:06:27.166Z,2.38
2022-09-17T19:08:55.417Z,3.08
2022-09-17T19:11:21.730Z,2.63
2022-09-17T19:13:51.477Z,1.88
2022-09-17T19:16:18.048Z,2.22
2022-09-17T19:18:44.754Z,2.47
2022-09-17T19:21:19.375Z,2.30
2022-09-17T19:23:49.087Z,3.33
2022-09-17T19:26:21.692Z,2.80
2022-09-17T19:28:51.148Z,2.38
2022-09-17T19:31:17.717Z,2.17
2022-09-17T19:33:45.198Z,2.40
2022-09-17T19:36:16.233Z,2.75
2022-09-17T19:38:43.402Z,2.40
2022-09-17T19:41:12.225Z,3.03
2022-09-17T19:43:39.537Z,2.20
2022-09-17T19:46:08.453Z,2.10
2022-09-17T19:48:38.006Z,2.83
2022-09-17T19:51:05.348Z,2.40
2022-09-17T19:53:32.532Z,3.03
2022-09-17T19:55:58.853Z,2.45
2022-09-17T19:58:25.154Z,2.85
2022-09-17T20:00:58.999Z,2.67
2022-09-17T20:03:25.963Z,2.40
2022-09-17T20:06:03.875Z,3.42
2022-09-17T20:08:30.913Z,1.90
2022-09-17T20:11:05.237Z,2.25
2022-09-17T20:13:31.769Z,2.40
2022-09-17T20:16:04.052Z,2.80
2022-09-17T20:18:30.477Z,5.07
2022-09-17T20:20:56.833Z,3.38
2022-09-17T20:23:23.116Z,3.30
2022-09-17T20:25:53.338Z,3.63
2022-09-17T20:28:20.036Z,3.15
2022-09-17T20:30:46.368Z,2.72
2022-09-17T20:33:13.201Z,3.03
2022-09-17T20:35:39.491Z,2.30
2022-09-17T20:38:57.825Z,2.35
2022-09-17T20:40:52.387Z,1.95
2022-09-17T20:43:18.690Z,2.22
2022-09-17T20:45:52.688Z,2.45
2022-09-17T20:48:18.973Z,2.20
2022-09-17T20:50:54.678Z,1.67
2022-09-17T20:53:20.968Z,2.38
2022-09-17T20:56:02.372Z,1.95
2022-09-17T20:58:30.644Z,2.72
2022-09-17T21:01:09.312Z,2.22
2022-09-17T21:03:35.836Z,3.05
2022-09-17T21:06:02.192Z,2.58
2022-09-17T21:08:28.828Z,2.95
2022-09-17T21:10:55.255Z,2.72
2022-09-17T21:13:21.565Z,3.10
2022-09-17T21:15:58.972Z,2.50
2022-09-17T21:18:25.798Z,1.80
2022-09-17T21:20:52.109Z,2.35
2022-09-17T21:23:29.243Z,2.17
2022-09-17T21:26:12.935Z,2.15
2022-09-17T21:28:40.144Z,2.35
2022-09-17T21:31:10.697Z,1.80
2022-09-17T21:33:37.392Z,2.58
2022-09-17T21:36:06.257Z,2.05
2022-09-17T21:38:32.988Z,2.28
2022-09-17T21:41:01.344Z,1.85
2022-09-17T21:43:28.169Z,2.00
2022-09-17T21:45:59.601Z,2.45
2022-09-17T21:48:26.284Z,2.60
2022-09-17T21:50:53.149Z,1.45
2022-09-17T21:53:19.681Z,2.35
2022-09-17T21:55:45.965Z,2.13
2022-09-17T21:58:12.253Z,1.80
2022-09-17T22:00:38.581Z,1.77
2022-09-17T22:03:04.987Z,2.10
2022-09-17T22:05:32.589Z,2.20
2022-09-17T22:07:58.891Z,1.85
2022-09-17T22:10:25.242Z,2.13
2022-09-17T22:12:51.537Z,2.13
2022-09-17T22:15:17.824Z,1.98
2022-09-17T22:17:44.124Z,1.30
2022-09-17T22:20:10.434Z,2.30
2022-09-17T22:22:36.748Z,1.58
2022-09-17T22:25:03.228Z,1.85
2022-09-17T22:27:29.525Z,2.47
2022-09-17T22:29:55.805Z,1.75
2022-09-17T22:32:22.586Z,1.70
2022-09-17T22:34:49.587Z,1.65
2022-09-17T22:37:16.473Z,1.95
2022-09-17T22:39:42.752Z,1.75
2022-09-17T22:42:09.025Z,1.80
2022-09-17T22:44:35.358Z,2.30
2022-09-17T22:47:01.735Z,1.20
2022-09-17T22:49:28.087Z,1.70
2022-09-17T22:51:54.398Z,2.17
2022-09-17T22:54:20.687Z,2.45
2022-09-17T22:56:48.283Z,1.60
2022-09-17T22:59:14.867Z,1.60
2022-09-17T23:01:41.677Z,1.35
2022-09-17T23:04:08.859Z,1.60
2022-09-17T23:06:38.094Z,1.63
2022-09-17T23:09:05.438Z,1.40
2022-09-17T23:11:34.621Z,1.40
2022-09-17T23:14:03.452Z,1.60
2022-09-17T23:16:35.072Z,1.35
2022-09-17T23:19:01.367Z,1.42
2022-09-17T23:21:27.649Z,1.58
2022-09-17T23:23:53.980Z,1.25
2022-09-17T23:26:23.056Z,1.40
2022-09-17T23:28:49.952Z,1.58
2022-09-17T23:31:21.291Z,1.48
2022-09-17T23:33:48.345Z,1.50
2022-09-17T23:36:17.372Z,1.30
2022-09-17T23:38:44.663Z,1.52
2022-09-17T23:41:19.780Z,1.48
2022-09-17T23:43:48.929Z,1.35
2022-09-17T23:46:15.778Z,1.67
2022-09-17T23:48:42.436Z,2.55
2022-09-17T23:51:09.329Z,1.40
2022-09-17T23:53:36.521Z,2.35
2022-09-17T23:56:04.551Z,2.00
2022-09-17T23:58:32.643Z,1.65
